00TE weather

Tcjc-Northeast Campus Heliport
Fort Worth, Texas, United States

Public forecast

Using degrees Fahrenheit for public forecast. Weather courtesy of forecast.io.

METAR (pilot weather report)

Closest report is Dallas Fort Worth International Airport, 8.2 nm (15.2 km) ENE. Retrieved 2019/07/17 11:53 UTC (43 minutes ago):

KDFW 171153Z 18014KT 10SM FEW250 SCT300 26/22 A2999 RMK AO2 SLP147 T02610217 10300 20256 53012

TAF (pilot weather forecast)

Closest forecast is Dallas Fort Worth International Airport, 8.2 nm (15.2 km) ENE. Retrieved 2019/07/17 12:33 UTC (3 minutes ago):

TAF KDFW 171131Z 1712/1818 17012KT P6SM SCT250